Tropical Cyclones
[Index]
Main Index Home Page Stock Weather Photos Extreme Storms Discussion Storm News and Storm Chasing Reports Tropical Cyclones / Hurricanes / Typhoons Weather Data and Links Wild Fires / Bushfires Weather Observation Techniques Weather Picture Catalogue Tornado Pictures and Reports Stock Video Footage and DVDs for sale
Season 2016-2017 Tropical Cyclone ERNIE Track Map
Season 2016-2017 Summaries: [BoM-AU]
<<- Previous TC | BoM 2016-2017 Season | Next TC ->>

click for intensity scale information  Lat/long Grid: Show Hide

 Date Labels: Show Hide

Bureau of Meteorology Tropical Cyclone Data

Name: ERNIE
Number: 998 / 201617_26

05 Apr 2017 00:00 UTC to 10 Apr 2017 06:00 UTC

    date/time    lat    long    hPa   cat  kts
2017-04-05 00   10.9   113.2   1007         15          
2017-04-05 06   11.5   112.1   1005         20          
2017-04-05 12   11.7   111.7   1005         20          
2017-04-05 18   12.4   111.3   1004         20          
2017-04-06 00   13.0   111.3   1002         25          
2017-04-06 03   13.2   111.1   1000         35          
2017-04-06 06   13.4   111.0   1000         35          
2017-04-06 12   13.7   110.9    998         40          
2017-04-06 18   14.1   110.9    995    1    45          
2017-04-07 00   14.9   110.5    987    1    60          
2017-04-07 03   15.1   110.4    974    2    75          
2017-04-07 06   15.3   110.4    956    3    95          
2017-04-07 09   15.5   110.5    946    4    105          
2017-04-07 12   15.6   110.6    936    4    115          
2017-04-07 15   15.8   110.4    922    5    120          
2017-04-07 18   15.9   110.4    922    5    120          
2017-04-07 21   16.0   110.4    928    5    115          
2017-04-08 00   16.2   110.4    934    4    110          
2017-04-08 03   16.4   110.2    948    4    100          
2017-04-08 06   16.6   109.9    960    3    90          
2017-04-08 09   16.7   109.6    960    3    90          
2017-04-08 12   16.7   109.3    963    3    85          
2017-04-08 15   16.8   109.0    966    3    80          
2017-04-08 18   16.8   108.7    972    2    75          
2017-04-08 21   16.7   108.5    972    2    75          
2017-04-09 00   16.9   108.3    971    2    75          
2017-04-09 03   17.2   108.1    971    2    75          
2017-04-09 06   17.4   107.7    977    2    70          
2017-04-09 09   17.6   107.3    981    2    65          
2017-04-09 12   17.8   106.7    988    1    55          
2017-04-09 15   17.8   106.1    992    1    50          
2017-04-09 18   17.8   105.6    990    1    50          
2017-04-09 21   17.9   104.7    992    1    50          
2017-04-10 00   18.2   104.2    994    1    45          
2017-04-10 03   18.4   103.7    994    1    45          
2017-04-10 06   18.6   103.1    998         40          
Winds are 10-min average.

Tropical cyclone tracks developed by Michael Bath using data from the Bureau of Meteorology and Google Maps.


[Australian Severe Weather index] [Copyright Notice] [Email Contacts] [Search This Site] [Privacy Policy]
Document: tropical_cyclone_ernie.htm Updated: 29 June 2017